Time,TemperatureF,DewpointF,PressureIn,WindDirection,WindDirectionDegrees,WindSpeedMPH,WindSpeedGustMPH,Humidity,HourlyPrecipIn,Conditions,Clouds,dailyrainin,SoftwareType,DateUTC
2013-03-02 00:14:00,25.5,24.3,30.22,NNW,337,6.3,-999.0,95,-99.99,,,0.00,Acu-Link.com,2013-03-02 06:14:00,
2013-03-02 00:29:00,25.7,23.4,30.21,NNW,337,10.4,-999.0,91,-99.99,,,0.00,Acu-Link.com,2013-03-02 06:29:00,
2013-03-02 00:44:00,25.7,22.6,30.22,North,0,8.3,-999.0,88,-99.99,,,0.00,Acu-Link.com,2013-03-02 06:44:00,
2013-03-02 01:00:00,25.5,20.5,30.22,NNE,22,9.9,-999.0,81,-99.99,,,0.00,Acu-Link.com,2013-03-02 07:00:00,
2013-03-02 01:15:00,25.3,20.3,30.22,NW,315,7.8,-999.0,81,-99.99,,,0.00,Acu-Link.com,2013-03-02 07:15:00,
2013-03-02 01:30:00,25.3,20.6,30.22,North,0,5.8,-999.0,82,-99.99,,,0.00,Acu-Link.com,2013-03-02 07:30:00,
2013-03-02 01:45:00,25.0,21.1,30.22,NNW,337,8.3,-999.0,85,-99.99,,,0.00,Acu-Link.com,2013-03-02 07:45:00,
2013-03-02 02:00:00,24.8,20.7,30.22,NNE,22,9.9,-999.0,84,-99.99,,,0.00,Acu-Link.com,2013-03-02 08:00:00,
2013-03-02 02:15:00,24.8,20.4,30.22,North,0,7.8,-999.0,83,-99.99,,,0.00,Acu-Link.com,2013-03-02 08:15:00,
2013-03-02 02:30:00,24.4,19.1,30.22,NNE,22,7.3,-999.0,80,-99.99,,,0.00,Acu-Link.com,2013-03-02 08:30:00,
2013-03-02 02:45:00,24.8,19.8,30.21,NNE,22,6.3,-999.0,81,-99.99,,,0.00,Acu-Link.com,2013-03-02 08:45:00,
2013-03-02 03:00:00,23.9,18.9,30.21,NNW,337,6.8,-999.0,81,-99.99,,,0.00,Acu-Link.com,2013-03-02 09:00:00,
2013-03-02 03:18:00,23.9,18.6,30.21,North,0,7.8,-999.0,80,-99.99,,,0.00,Acu-Link.com,2013-03-02 09:18:00,
2013-03-02 03:33:00,23.7,18.2,30.21,NNW,337,6.3,-999.0,79,-99.99,,,0.00,Acu-Link.com,2013-03-02 09:33:00,
2013-03-02 03:48:00,23.7,17.9,30.21,NNW,337,8.3,-999.0,78,-99.99,,,0.00,Acu-Link.com,2013-03-02 09:48:00,
2013-03-02 04:03:00,23.7,17.9,30.22,NNW,337,8.9,-999.0,78,-99.99,,,0.00,Acu-Link.com,2013-03-02 10:03:00,
2013-03-02 04:19:00,23.5,17.7,30.22,NNW,337,6.3,-999.0,78,-99.99,,,0.00,Acu-Link.com,2013-03-02 10:19:00,
2013-03-02 04:34:00,23.2,17.7,30.22,NNW,337,6.8,-999.0,79,-99.99,,,0.00,Acu-Link.com,2013-03-02 10:34:00,
2013-03-02 04:49:00,23.4,17.9,30.22,NW,315,6.8,-999.0,79,-99.99,,,0.00,Acu-Link.com,2013-03-02 10:49:00,
2013-03-02 05:04:00,23.2,18.0,30.22,NNW,337,6.8,-999.0,80,-99.99,,,0.00,Acu-Link.com,2013-03-02 11:04:00,
2013-03-02 05:19:00,23.2,18.5,30.23,NNE,22,5.8,-999.0,82,-99.99,,,0.00,Acu-Link.com,2013-03-02 11:19:00,
2013-03-02 05:34:00,23.0,18.6,30.23,NNW,337,7.3,-999.0,83,-99.99,,,0.00,Acu-Link.com,2013-03-02 11:34:00,
2013-03-02 05:49:00,23.0,18.3,30.24,NNW,337,6.3,-999.0,82,-99.99,,,0.00,Acu-Link.com,2013-03-02 11:49:00,
2013-03-02 06:04:00,22.8,18.1,30.24,North,0,5.8,-999.0,82,-99.99,,,0.00,Acu-Link.com,2013-03-02 12:04:00,
2013-03-02 06:19:00,22.6,18.2,30.24,NW,315,5.8,-999.0,83,-99.99,,,0.00,Acu-Link.com,2013-03-02 12:19:00,
2013-03-02 06:35:00,22.8,17.6,30.24,NNW,337,6.3,-999.0,80,-99.99,,,0.00,Acu-Link.com,2013-03-02 12:35:00,
2013-03-02 06:50:00,23.2,18.3,30.25,NNW,337,7.8,-999.0,81,-99.99,,,0.00,Acu-Link.com,2013-03-02 12:50:00,
2013-03-02 07:05:00,23.0,17.8,30.25,NNE,22,6.3,-999.0,80,-99.99,,,0.00,Acu-Link.com,2013-03-02 13:05:00,
2013-03-02 07:20:00,23.2,18.0,30.25,NW,315,5.8,-999.0,80,-99.99,,,0.00,Acu-Link.com,2013-03-02 13:20:00,
2013-03-02 07:35:00,23.2,18.3,30.26,WNW,292,7.3,-999.0,81,-99.99,,,0.00,Acu-Link.com,2013-03-02 13:35:00,
2013-03-02 07:50:00,23.4,18.2,30.26,NNW,337,7.3,-999.0,80,-99.99,,,0.00,Acu-Link.com,2013-03-02 13:50:00,
2013-03-02 08:05:00,23.7,17.9,30.26,NW,315,9.4,-999.0,78,-99.99,,,0.00,Acu-Link.com,2013-03-02 14:05:00,
2013-03-02 08:20:00,24.1,18.3,30.27,NNW,337,7.3,-999.0,78,-99.99,,,0.00,Acu-Link.com,2013-03-02 14:20:00,
2013-03-02 08:35:00,24.1,17.7,30.27,NNW,337,11.4,-999.0,76,-99.99,,,0.00,Acu-Link.com,2013-03-02 14:35:00,
2013-03-02 08:51:00,23.5,16.8,30.27,NNW,337,8.9,-999.0,75,-99.99,,,0.00,Acu-Link.com,2013-03-02 14:51:00,
2013-03-02 09:06:00,24.4,17.9,30.26,West,270,9.9,-999.0,76,-99.99,,,0.00,Acu-Link.com,2013-03-02 15:06:00,
2013-03-02 09:21:00,24.6,17.8,30.27,NW,315,7.8,-999.0,75,-99.99,,,0.00,Acu-Link.com,2013-03-02 15:21:00,
2013-03-02 09:36:00,25.2,18.4,30.27,NNW,337,7.8,-999.0,75,-99.99,,,0.00,Acu-Link.com,2013-03-02 15:36:00,
2013-03-02 09:51:00,25.3,18.5,30.27,NNW,337,9.9,-999.0,75,-99.99,,,0.00,Acu-Link.com,2013-03-02 15:51:00,
2013-03-02 10:06:00,25.5,18.4,30.27,NNE,22,8.9,-999.0,74,-99.99,,,0.00,Acu-Link.com,2013-03-02 16:06:00,
2013-03-02 10:21:00,26.8,19.3,30.27,NNE,22,6.8,-999.0,73,-99.99,,,0.00,Acu-Link.com,2013-03-02 16:21:00,
2013-03-02 10:36:00,26.2,18.7,30.26,NW,315,8.9,-999.0,73,-99.99,,,0.00,Acu-Link.com,2013-03-02 16:36:00,
2013-03-02 10:51:00,26.6,19.1,30.25,NNW,337,5.3,-999.0,73,-99.99,,,0.00,Acu-Link.com,2013-03-02 16:51:00,
2013-03-02 11:07:00,27.3,18.8,30.26,NNW,337,7.8,-999.0,70,-99.99,,,0.00,Acu-Link.com,2013-03-02 17:07:00,
2013-03-02 11:22:00,27.9,19.7,30.25,WNW,292,6.3,-999.0,71,-99.99,,,0.00,Acu-Link.com,2013-03-02 17:22:00,
2013-03-02 11:37:00,28.2,20.0,30.25,North,0,6.8,-999.0,71,-99.99,,,0.00,Acu-Link.com,2013-03-02 17:37:00,
2013-03-02 11:52:00,28.4,19.9,30.24,NW,315,6.8,-999.0,70,-99.99,,,0.00,Acu-Link.com,2013-03-02 17:52:00,
2013-03-02 12:07:00,28.2,19.4,30.23,NNW,337,7.3,-999.0,69,-99.99,,,0.00,Acu-Link.com,2013-03-02 18:07:00,
2013-03-02 12:22:00,28.9,20.0,30.23,NNE,22,5.8,-999.0,69,-99.99,,,0.00,Acu-Link.com,2013-03-02 18:22:00,
2013-03-02 12:37:00,28.8,19.9,30.23,NNW,337,4.7,-999.0,69,-99.99,,,0.00,Acu-Link.com,2013-03-02 18:37:00,
2013-03-02 12:52:00,28.6,20.1,30.22,NNW,337,3.7,-999.0,70,-99.99,,,0.00,Acu-Link.com,2013-03-02 18:52:00,
2013-03-02 13:08:00,27.9,19.4,30.21,West,270,3.2,-999.0,70,-99.99,,,0.00,Acu-Link.com,2013-03-02 19:08:00,
2013-03-02 13:23:00,28.4,19.6,30.21,NNW,337,4.7,-999.0,69,-99.99,,,0.00,Acu-Link.com,2013-03-02 19:23:00,
2013-03-02 13:38:00,28.4,19.6,30.20,NW,315,4.2,-999.0,69,-99.99,,,0.00,Acu-Link.com,2013-03-02 19:38:00,
2013-03-02 13:53:00,29.8,20.5,30.20,West,270,5.8,-999.0,68,-99.99,,,0.00,Acu-Link.com,2013-03-02 19:53:00,
2013-03-02 14:08:00,30.0,20.0,30.19,WNW,292,5.3,-999.0,66,-99.99,,,0.00,Acu-Link.com,2013-03-02 20:08:00,
2013-03-02 14:23:00,29.7,20.5,30.19,WNW,292,4.2,-999.0,68,-99.99,,,0.00,Acu-Link.com,2013-03-02 20:23:00,
2013-03-02 14:38:00,29.5,20.3,30.19,NW,315,4.2,-999.0,68,-99.99,,,0.00,Acu-Link.com,2013-03-02 20:38:00,
2013-03-02 14:53:00,29.8,19.9,30.19,West,270,4.7,-999.0,66,-99.99,,,0.00,Acu-Link.com,2013-03-02 20:53:00,
2013-03-02 15:08:00,29.7,20.1,30.19,West,270,3.2,-999.0,67,-99.99,,,0.00,Acu-Link.com,2013-03-02 21:08:00,
2013-03-02 15:23:00,29.3,20.4,30.19,NW,315,4.7,-999.0,69,-99.99,,,0.00,Acu-Link.com,2013-03-02 21:23:00,
2013-03-02 15:39:00,29.7,20.8,30.18,West,270,1.7,-999.0,69,-99.99,,,0.00,Acu-Link.com,2013-03-02 21:39:00,
2013-03-02 15:54:00,29.5,20.3,30.18,NW,315,2.2,-999.0,68,-99.99,,,0.00,Acu-Link.com,2013-03-02 21:54:00,
2013-03-02 16:09:00,32.0,21.2,30.18,South,180,2.2,-999.0,64,-99.99,,,0.00,Acu-Link.com,2013-03-02 22:09:00,
2013-03-02 16:24:00,30.0,19.7,30.18,WNW,292,2.2,-999.0,65,-99.99,,,0.00,Acu-Link.com,2013-03-02 22:24:00,
2013-03-02 16:39:00,30.9,21.6,30.18,NNW,337,2.7,-999.0,68,-99.99,,,0.00,Acu-Link.com,2013-03-02 22:39:00,
2013-03-02 16:54:00,29.7,20.5,30.18,NW,315,3.2,-999.0,68,-99.99,,,0.00,Acu-Link.com,2013-03-02 22:54:00,
2013-03-02 17:09:00,29.1,20.2,30.18,NNW,337,3.7,-999.0,69,-99.99,,,0.00,Acu-Link.com,2013-03-02 23:09:00,
2013-03-02 17:24:00,29.3,20.1,30.18,NNW,337,2.2,-999.0,68,-99.99,,,0.00,Acu-Link.com,2013-03-02 23:24:00,
2013-03-02 17:39:00,27.9,18.7,30.18,NNW,337,1.1,-999.0,68,-99.99,,,0.00,Acu-Link.com,2013-03-02 23:39:00,
2013-03-02 17:55:00,25.9,18.1,30.18,NNW,337,1.7,-999.0,72,-99.99,,,0.00,Acu-Link.com,2013-03-02 23:55:00,
2013-03-02 18:10:00,23.9,17.5,30.19,NE,45,0.0,-999.0,76,-99.99,,,0.00,Acu-Link.com,2013-03-03 00:10:00,
2013-03-02 18:25:00,22.1,18.6,30.19,ENE,67,2.2,-999.0,86,-99.99,,,0.00,Acu-Link.com,2013-03-03 00:25:00,
2013-03-02 18:40:00,21.0,18.5,30.19,ENE,67,0.0,-999.0,90,-99.99,,,0.00,Acu-Link.com,2013-03-03 00:40:00,
2013-03-02 18:55:00,20.3,19.8,30.18,South,180,1.7,-999.0,98,-99.99,,,0.00,Acu-Link.com,2013-03-03 00:55:00,
2013-03-02 19:10:00,19.9,18.0,30.18,SSE,157,0.0,-999.0,92,-99.99,,,0.00,Acu-Link.com,2013-03-03 01:10:00,
2013-03-02 19:25:00,18.9,17.7,30.17,SW,225,0.0,-999.0,95,-99.99,,,0.00,Acu-Link.com,2013-03-03 01:25:00,
2013-03-02 19:40:00,18.3,17.1,30.16,South,180,0.0,-999.0,95,-99.99,,,0.00,Acu-Link.com,2013-03-03 01:40:00,
2013-03-02 19:55:00,17.6,16.2,30.16,South,180,0.0,-999.0,94,-99.99,,,0.00,Acu-Link.com,2013-03-03 01:55:00,
2013-03-02 20:11:00,17.8,17.3,30.15,North,0,0.0,-999.0,98,-99.99,,,0.00,Acu-Link.com,2013-03-03 02:11:00,
2013-03-02 20:26:00,17.4,16.9,30.16,South,180,0.0,-999.0,98,-99.99,,,0.00,Acu-Link.com,2013-03-03 02:26:00,
2013-03-02 20:41:00,17.6,17.1,30.16,SSE,157,0.0,-999.0,98,-99.99,,,0.00,Acu-Link.com,2013-03-03 02:41:00,
2013-03-02 20:56:00,18.0,17.5,30.15,SSW,202,1.1,-999.0,98,-99.99,,,0.00,Acu-Link.com,2013-03-03 02:56:00,
2013-03-02 21:11:00,18.3,17.8,30.15,South,180,0.0,-999.0,98,-99.99,,,0.00,Acu-Link.com,2013-03-03 03:11:00,
2013-03-02 21:26:00,19.0,18.1,30.15,SE,135,1.1,-999.0,96,-99.99,,,0.00,Acu-Link.com,2013-03-03 03:26:00,
2013-03-02 21:41:00,19.8,17.9,30.15,SSW,202,0.0,-999.0,92,-99.99,,,0.00,Acu-Link.com,2013-03-03 03:41:00,
2013-03-02 21:56:00,19.2,17.8,30.14,SSW,202,0.0,-999.0,94,-99.99,,,0.00,Acu-Link.com,2013-03-03 03:56:00,
2013-03-02 22:12:00,19.6,17.9,30.14,SSE,157,0.0,-999.0,93,-99.99,,,0.00,Acu-Link.com,2013-03-03 04:12:00,
2013-03-02 22:27:00,19.9,18.5,30.14,ESE,112,0.0,-999.0,94,-99.99,,,0.00,Acu-Link.com,2013-03-03 04:27:00,
2013-03-02 22:42:00,21.0,18.3,30.14,SE,135,0.0,-999.0,89,-99.99,,,0.00,Acu-Link.com,2013-03-03 04:42:00,
2013-03-02 22:57:00,21.6,18.1,30.14,South,180,2.2,-999.0,86,-99.99,,,0.00,Acu-Link.com,2013-03-03 04:57:00,
2013-03-02 23:12:00,21.7,18.2,30.13,South,180,2.7,-999.0,86,-99.99,,,0.00,Acu-Link.com,2013-03-03 05:12:00,
2013-03-02 23:27:00,21.9,17.8,30.13,SSW,202,2.7,-999.0,84,-99.99,,,0.00,Acu-Link.com,2013-03-03 05:27:00,
2013-03-02 23:42:00,22.3,18.5,30.13,SSW,202,1.1,-999.0,85,-99.99,,,0.00,Acu-Link.com,2013-03-03 05:42:00,
2013-03-02 23:57:00,22.6,19.1,30.12,South,180,1.7,-999.0,86,-99.99,,,0.00,Acu-Link.com,2013-03-03 05:57:00,